LDSP Airport Information

Runway Information
Runway 05 Length 8366 ft width 148 ft
Elevation 70 ft Threshold ft Heading 53
Runway 23 Length 8366 ft Width 148 ft
Elevation 50 ft Threshold 525 ft Heading 233
Airport Frequencies
Type APP Name APP Frequency 120.875 MHZ
Type INFO Name INFO Frequency 128.675 MHZ
Type TWR Name TWR Frequency 124.675 MHZ
Airport Navaids
Type NDB Name Drvenik Frequency 418 KHZ
Type VOR-DME Name Split Frequency 115700 KHZ
Type NDB Name Trogir Frequency 378 KHZ
Airport Weather Information & NOTAM
ADDS - METARS form results

(0506 UTC 13 September 2022)
Data provider http://aviationweather.gov/metar/data/
 
METAR text: LDSP 130500Z 29002KT CAVOK 19/09 Q1014 NOSIG
Conditions at: LDSP (SPLIT/KASTEL STA, HR) observed 0500 UTC 13 September 2022
Temperature: 19.0°C (66°F)
Dewpoint: 9.0°C (48°F) [RH = 52%]
Pressure (altimeter): 29.94 inches Hg (1014.0 mb)
Winds: from the WNW (290 degrees) at 2 MPH (2 knots; 1.0 m/s)
Visibility: 6 or more miles (10+ km)
Ceiling: ceiling and visibility are OK
Clouds: unknown
Weather: no significant weather observed at this time

METAR text: LDSP 130430Z 30005KT 280V040 CAVOK 18/05 Q1014 NOSIG
Conditions at: LDSP (SPLIT/KASTEL STA, HR) observed 0430 UTC 13 September 2022
Temperature: 18.0°C (64°F)
Dewpoint: 5.0°C (41°F) [RH = 42%]
Pressure (altimeter): 29.94 inches Hg (1014.0 mb)
Winds: from the WNW (300 degrees) at 6 MPH (5 knots; 2.6 m/s)
Visibility: 6 or more miles (10+ km)
Ceiling: ceiling and visibility are OK
Clouds: unknown
Weather: no significant weather observed at this time

Forecast for: LDSP (SPLIT/KASTEL STA, HR)
Text: TAF LDSP 122325Z 1300/1400 30005KT CAVOK TX28/1315Z TN16/1304Z
Forecast period: 0000 to 0900 UTC 13 September 2022
Forecast type: FROM: standard forecast or significant change
Winds: from the WNW (300 degrees) at 6 MPH (5 knots; 2.6 m/s)
Visibility: 6 or more miles (10+ km)
Ceiling: unknown
Clouds: missing
Weather: no significant weather forecast for this period
Text: BECMG 1309/1311 23012KT
Forecast period: 0900 to 1400 UTC 13 September 2022
Forecast type: BECOMING: Conditions expected to become as follows by 1100 UTC 13 September 2022
Winds: from the SW (230 degrees) at 14 MPH (12 knots; 6.2 m/s)
Visibility: 6 or more miles (10+ km)
Ceiling: unknown
Clouds: missing
Weather: no significant weather forecast for this period
Text: BECMG 1314/1316 30008KT
Forecast period: 1400 UTC 13 September 2022 to 0000 UTC 14 September 2022
Forecast type: BECOMING: Conditions expected to become as follows by 1600 UTC 13 September 2022
Winds: from the WNW (300 degrees) at 9 MPH (8 knots; 4.1 m/s)
Visibility: 6 or more miles (10+ km)
Ceiling: unknown
Clouds: missing
Weather: no significant weather forecast for this period